createdAt,value
2023-03-16T00:03:57.134Z,23.34
2023-03-16T00:07:57.179Z,23.37
2023-03-16T00:11:57.211Z,23.34
2023-03-16T00:15:57.366Z,23.37
2023-03-16T00:19:57.343Z,23.40
2023-03-16T00:23:57.340Z,23.41
2023-03-16T00:27:57.384Z,23.37
2023-03-16T00:31:57.453Z,23.44
2023-03-16T00:35:57.551Z,23.41
2023-03-16T00:39:57.595Z,23.46
2023-03-16T00:43:57.728Z,23.46
2023-03-16T00:47:57.764Z,23.43
2023-03-16T00:51:57.841Z,23.48
2023-03-16T00:55:57.861Z,23.48
2023-03-16T00:59:57.934Z,23.47
2023-03-16T01:03:58.023Z,23.48
2023-03-16T01:07:58.105Z,23.49
2023-03-16T01:11:58.171Z,23.48
2023-03-16T01:15:58.226Z,23.50
2023-03-16T01:19:58.334Z,23.57
2023-03-16T01:23:58.468Z,23.54
2023-03-16T01:27:58.497Z,23.57
2023-03-16T01:31:58.514Z,23.56
2023-03-16T01:35:58.632Z,23.53
2023-03-16T01:39:58.674Z,23.58
2023-03-16T01:43:58.792Z,23.57
2023-03-16T01:47:58.848Z,23.60
2023-03-16T01:51:58.912Z,23.58
2023-03-16T01:55:58.990Z,23.62
2023-03-16T01:59:59.085Z,23.65
2023-03-16T02:03:59.204Z,23.64
2023-03-16T02:07:59.236Z,23.66
2023-03-16T02:11:59.307Z,23.67
2023-03-16T02:15:59.465Z,23.69
2023-03-16T02:19:59.466Z,23.69
2023-03-16T02:23:59.536Z,23.68
2023-03-16T02:27:59.631Z,23.70
2023-03-16T02:31:59.751Z,23.69
2023-03-16T02:35:59.851Z,23.73
2023-03-16T02:39:59.899Z,23.73
2023-03-16T02:43:59.976Z,23.69
2023-03-16T02:48:00.374Z,23.70
2023-03-16T02:52:00.148Z,23.80
2023-03-16T02:56:00.264Z,23.70
2023-03-16T03:00:00.343Z,23.76
2023-03-16T03:04:00.412Z,23.74
2023-03-16T03:08:00.491Z,23.74
2023-03-16T03:12:00.577Z,23.77
2023-03-16T03:16:00.676Z,23.80
2023-03-16T03:20:00.760Z,23.85
2023-03-16T03:24:00.821Z,23.81
2023-03-16T03:28:01.008Z,23.84
2023-03-16T03:32:00.987Z,23.84
2023-03-16T03:36:01.064Z,23.86
2023-03-16T03:40:01.160Z,23.86
2023-03-16T03:44:01.206Z,23.85
2023-03-16T03:48:01.292Z,23.86
2023-03-16T03:52:01.358Z,23.86
2023-03-16T03:56:01.449Z,23.87
2023-03-16T04:00:01.528Z,23.92
2023-03-16T04:04:01.894Z,23.90
2023-03-16T04:08:01.636Z,23.89
2023-03-16T04:12:01.737Z,23.90
2023-03-16T04:16:01.812Z,23.92
2023-03-16T04:20:01.896Z,23.95
2023-03-16T04:24:01.995Z,23.96
2023-03-16T04:28:02.084Z,23.90
2023-03-16T04:32:02.147Z,23.92
2023-03-16T04:36:02.298Z,23.96
2023-03-16T04:40:02.331Z,23.92
2023-03-16T04:44:02.467Z,24.00
2023-03-16T04:48:02.571Z,23.94
2023-03-16T04:52:02.647Z,23.98
2023-03-16T04:56:02.798Z,23.98
2023-03-16T05:00:02.915Z,24.02
2023-03-16T05:04:03.015Z,23.86
2023-03-16T05:08:03.117Z,23.54
2023-03-16T05:12:03.165Z,23.28
2023-03-16T05:16:03.295Z,23.01
2023-03-16T05:20:03.393Z,22.89
2023-03-16T05:24:03.533Z,22.71
2023-03-16T05:28:03.616Z,22.47
2023-03-16T05:32:03.743Z,22.51
2023-03-16T05:36:03.971Z,22.64
2023-03-16T05:40:03.970Z,22.68
2023-03-16T05:44:04.069Z,22.77
2023-03-16T05:48:04.202Z,22.85
2023-03-16T05:52:04.369Z,22.85
2023-03-16T05:56:04.461Z,22.88
2023-03-16T06:00:04.591Z,22.72
2023-03-16T06:04:04.704Z,22.82
2023-03-16T06:08:04.710Z,22.78
2023-03-16T06:12:04.839Z,22.77
2023-03-16T06:16:04.883Z,22.69
2023-03-16T06:20:04.968Z,22.77
2023-03-16T06:24:05.058Z,22.57
2023-03-16T06:28:05.143Z,21.83
2023-03-16T06:32:05.278Z,21.45
2023-03-16T06:36:05.315Z,21.69
2023-03-16T06:40:05.435Z,21.71
2023-03-16T06:44:05.588Z,22.07
2023-03-16T06:48:05.988Z,22.19
2023-03-16T06:52:05.852Z,22.30
2023-03-16T06:56:05.846Z,22.47
2023-03-16T07:00:05.992Z,22.62
2023-03-16T07:04:06.090Z,22.55
2023-03-16T07:08:06.062Z,22.76
2023-03-16T07:12:06.073Z,22.72
2023-03-16T07:16:06.166Z,22.90
2023-03-16T07:20:06.125Z,23.04
2023-03-16T07:24:06.067Z,23.12
2023-03-16T07:28:06.037Z,23.17
2023-03-16T07:32:06.103Z,23.36
2023-03-16T07:36:06.167Z,23.36
2023-03-16T07:40:06.003Z,23.88
2023-03-16T07:44:06.037Z,22.54
2023-03-16T07:48:05.895Z,21.55
2023-03-16T07:52:05.820Z,21.78
2023-03-16T07:56:05.752Z,21.57
2023-03-16T08:00:05.731Z,21.53
2023-03-16T08:04:05.723Z,21.64
2023-03-16T08:08:05.686Z,21.50
2023-03-16T08:12:05.614Z,22.06
2023-03-16T08:16:05.671Z,22.62
2023-03-16T08:20:05.607Z,23.00
2023-03-16T08:24:05.596Z,23.40
2023-03-16T08:28:05.755Z,24.00
2023-03-16T08:32:06.000Z,22.74
2023-03-16T08:36:07.895Z,23.01
2023-03-16T08:40:05.903Z,23.86
2023-03-16T08:44:05.870Z,23.98
2023-03-16T08:48:05.859Z,24.02
2023-03-16T08:52:05.890Z,24.05
2023-03-16T08:56:05.908Z,23.24
2023-03-16T09:00:05.971Z,22.81
2023-03-16T09:04:06.152Z,22.34
2023-03-16T09:08:06.098Z,22.00
2023-03-16T09:12:06.023Z,21.81
2023-03-16T09:16:06.061Z,21.61
2023-03-16T09:20:19.589Z,21.61
2023-03-16T09:24:07.033Z,21.52
2023-03-16T09:28:05.921Z,20.83
2023-03-16T09:32:06.059Z,16.59
2023-03-16T09:36:06.201Z,16.11
2023-03-16T09:40:11.821Z,16.04
2023-03-16T09:44:07.369Z,17.99
2023-03-16T09:48:06.316Z,19.47
2023-03-16T09:52:06.323Z,20.19
2023-03-16T09:56:06.417Z,20.64
2023-03-16T10:00:06.555Z,20.98
2023-03-16T10:04:06.712Z,21.33
2023-03-16T10:08:06.641Z,21.52
2023-03-16T10:12:06.688Z,21.73
2023-03-16T10:16:07.082Z,21.76
2023-03-16T10:20:06.840Z,21.66
2023-03-16T10:24:06.775Z,21.82
2023-03-16T10:28:06.763Z,21.58
2023-03-16T10:32:06.743Z,21.58
2023-03-16T10:36:07.074Z,21.76
2023-03-16T10:40:07.087Z,18.88
2023-03-16T10:44:06.631Z,17.98
2023-03-16T10:48:06.572Z,17.42
2023-03-16T10:52:06.560Z,17.25
2023-03-16T10:56:06.465Z,17.08
2023-03-16T11:00:06.461Z,16.86
2023-03-16T11:04:06.703Z,17.55
2023-03-16T11:08:06.566Z,17.78
2023-03-16T11:12:06.551Z,17.48
2023-03-16T11:16:06.507Z,18.55
2023-03-16T11:20:06.480Z,19.39
2023-03-16T13:46:49.890Z,14.39
2023-03-16T13:50:49.901Z,14.41
2023-03-16T13:54:49.832Z,14.21
2023-03-16T13:58:49.716Z,14.15
2023-03-16T14:02:49.745Z,13.97
2023-03-16T14:06:49.690Z,14.12
2023-03-16T14:10:49.623Z,14.11
2023-03-16T14:14:49.598Z,14.00
2023-03-16T14:18:49.589Z,13.96
2023-03-16T14:22:49.559Z,13.97
2023-03-16T14:26:49.538Z,13.87
2023-03-16T14:30:49.467Z,13.78
2023-03-16T14:34:49.414Z,13.72
2023-03-16T14:38:49.449Z,13.64
2023-03-16T14:42:49.480Z,13.62
2023-03-16T14:46:49.655Z,13.41
2023-03-16T14:50:49.590Z,13.55
2023-03-16T14:54:49.724Z,13.31
2023-03-16T14:58:49.859Z,13.18
2023-03-16T15:02:49.885Z,13.29
2023-03-16T15:06:49.808Z,13.23
2023-03-16T15:10:49.770Z,13.03
2023-03-16T15:14:50.474Z,13.13
2023-03-16T15:18:49.687Z,13.08
2023-03-16T15:22:49.651Z,13.29
2023-03-16T15:26:49.627Z,13.38
2023-03-16T15:30:49.613Z,13.50
2023-03-16T15:34:49.592Z,13.51
2023-03-16T15:38:49.530Z,13.60
2023-03-16T15:42:49.484Z,13.71
2023-03-16T15:46:49.505Z,13.69
2023-03-16T15:50:49.425Z,13.78
2023-03-16T15:54:49.407Z,13.86
2023-03-16T15:58:49.332Z,13.90
2023-03-16T16:02:49.312Z,14.06
2023-03-16T16:06:49.231Z,13.97
2023-03-16T16:10:49.256Z,14.05
2023-03-16T16:14:49.448Z,14.10
2023-03-16T16:18:49.526Z,14.25
2023-03-16T16:22:49.598Z,14.36
2023-03-16T16:26:53.212Z,14.41
2023-03-16T16:30:50.685Z,14.56
2023-03-16T16:35:03.385Z,14.69
2023-03-16T16:38:50.570Z,14.77
2023-03-16T16:42:49.585Z,14.95
2023-03-16T16:46:49.561Z,14.99
2023-03-16T16:50:49.692Z,15.16
2023-03-16T16:54:49.825Z,15.28
2023-03-16T16:58:49.986Z,15.24
2023-03-16T17:02:50.169Z,15.35
2023-03-16T17:06:50.362Z,15.51
2023-03-16T17:10:50.631Z,15.60
2023-03-16T17:14:50.595Z,15.81
2023-03-16T17:18:50.546Z,15.98
2023-03-16T17:22:50.519Z,16.13
2023-03-16T17:26:50.456Z,16.20
2023-03-16T17:30:50.496Z,16.33
2023-03-16T17:34:50.394Z,16.48
2023-03-16T17:38:50.380Z,16.64
2023-03-16T17:42:50.331Z,16.76
2023-03-16T17:46:50.365Z,16.81
2023-03-16T17:50:50.302Z,16.85
2023-03-16T17:54:50.238Z,17.00
2023-03-16T17:58:50.181Z,17.15
2023-03-16T18:02:50.144Z,17.39
2023-03-16T18:06:50.077Z,17.51
2023-03-16T18:10:50.060Z,17.66
2023-03-16T18:14:50.079Z,17.76
2023-03-16T18:18:50.141Z,17.85
2023-03-16T18:22:50.351Z,17.91
2023-03-16T18:26:50.447Z,17.85
2023-03-16T18:30:50.571Z,17.92
2023-03-16T18:34:50.711Z,17.96
2023-03-16T18:38:50.858Z,18.03
2023-03-16T18:42:50.806Z,19.08
2023-03-16T18:46:50.817Z,19.79
2023-03-16T18:50:50.707Z,19.92
2023-03-16T18:54:50.700Z,19.93
2023-03-16T18:58:50.665Z,20.02
2023-03-16T19:02:50.653Z,20.01
2023-03-16T19:06:50.616Z,20.11
2023-03-16T19:10:50.527Z,20.17
2023-03-16T19:14:50.528Z,20.19
2023-03-16T19:18:50.493Z,20.19
2023-03-16T19:22:50.467Z,20.23
2023-03-16T19:26:50.420Z,20.28
2023-03-16T19:30:50.426Z,20.33
2023-03-16T19:34:50.352Z,20.30
2023-03-16T19:38:50.432Z,20.31
2023-03-16T19:42:50.504Z,20.40
2023-03-16T19:46:50.630Z,20.43
2023-03-16T19:50:50.822Z,20.42
2023-03-16T19:54:50.890Z,20.52
2023-03-16T19:58:51.068Z,20.57
2023-03-16T20:02:51.182Z,20.55
2023-03-16T20:06:51.577Z,20.64
2023-03-16T20:10:51.413Z,20.69
2023-03-16T20:14:51.521Z,20.72
2023-03-16T20:18:51.670Z,20.82
2023-03-16T20:22:51.803Z,20.82
2023-03-16T20:26:51.947Z,20.85
2023-03-16T20:30:52.042Z,20.88
2023-03-16T20:34:52.139Z,20.88
2023-03-16T20:38:52.255Z,20.99
2023-03-16T20:42:52.340Z,20.97
2023-03-16T20:46:52.475Z,21.02
2023-03-16T20:50:52.603Z,21.05
2023-03-16T20:54:52.696Z,21.03
2023-03-16T20:58:52.808Z,21.14
2023-03-16T21:02:52.935Z,21.17
2023-03-16T21:06:53.065Z,21.14
2023-03-16T21:10:53.202Z,21.23
2023-03-16T21:14:53.250Z,21.21
2023-03-16T21:18:53.417Z,21.27
2023-03-16T21:22:53.494Z,21.32
2023-03-16T21:26:53.591Z,21.35
2023-03-16T21:30:53.741Z,21.35
2023-03-16T21:34:53.787Z,21.39
2023-03-16T21:38:53.930Z,21.35
2023-03-16T21:42:54.038Z,21.37
2023-03-16T21:46:54.162Z,21.39
2023-03-16T21:50:54.263Z,21.42
2023-03-16T21:54:54.322Z,21.42
2023-03-16T21:58:54.421Z,21.43
2023-03-16T22:02:54.719Z,21.45
2023-03-16T22:06:54.709Z,21.42
2023-03-16T22:10:54.839Z,21.52
2023-03-16T22:14:54.990Z,21.48
2023-03-16T22:18:55.110Z,21.51
2023-03-16T23:06:56.838Z,21.64
2023-03-16T23:10:56.963Z,21.64
2023-03-16T23:14:57.121Z,21.64
2023-03-16T23:18:57.266Z,21.67
2023-03-16T23:22:57.485Z,21.69
2023-03-16T23:26:57.579Z,21.70
2023-03-16T23:30:57.837Z,21.68
2023-03-16T23:34:57.946Z,21.68
2023-03-16T23:38:58.077Z,21.71
2023-03-16T23:42:58.237Z,21.73
2023-03-16T23:46:58.439Z,21.74
2023-03-16T23:50:58.629Z,21.79
2023-03-16T23:54:58.797Z,21.77
2023-03-16T23:58:58.926Z,21.83
